sensor_id;sensor_type;location;lat;lon;timestamp;P1;durP1;ratioP1;P2;durP2;ratioP2
34988;SDS011;21192;40.182;44.516;2024-01-27T00:00:42;145.57;;;86.88;;
34988;SDS011;21192;40.182;44.516;2024-01-27T00:03:08;146.95;;;85.40;;
34988;SDS011;21192;40.182;44.516;2024-01-27T00:05:34;143.18;;;85.10;;
34988;SDS011;21192;40.182;44.516;2024-01-27T00:08:00;144.52;;;83.95;;
34988;SDS011;21192;40.182;44.516;2024-01-27T00:10:25;143.73;;;85.68;;
34988;SDS011;21192;40.182;44.516;2024-01-27T00:12:51;140.38;;;83.63;;
34988;SDS011;21192;40.182;44.516;2024-01-27T00:15:17;145.02;;;84.63;;
34988;SDS011;21192;40.182;44.516;2024-01-27T00:17:43;141.60;;;84.75;;
34988;SDS011;21192;40.182;44.516;2024-01-27T00:20:09;145.05;;;84.40;;
34988;SDS011;21192;40.182;44.516;2024-01-27T00:22:35;141.98;;;86.13;;
34988;SDS011;21192;40.182;44.516;2024-01-27T00:25:01;149.00;;;87.68;;
34988;SDS011;21192;40.182;44.516;2024-01-27T00:27:27;145.30;;;87.13;;
34988;SDS011;21192;40.182;44.516;2024-01-27T00:29:53;147.40;;;86.10;;
34988;SDS011;21192;40.182;44.516;2024-01-27T00:32:19;140.93;;;85.80;;
34988;SDS011;21192;40.182;44.516;2024-01-27T00:34:45;148.45;;;86.68;;
34988;SDS011;21192;40.182;44.516;2024-01-27T00:37:11;147.85;;;88.07;;
34988;SDS011;21192;40.182;44.516;2024-01-27T00:39:37;143.20;;;86.50;;
34988;SDS011;21192;40.182;44.516;2024-01-27T00:42:03;143.98;;;88.30;;
34988;SDS011;21192;40.182;44.516;2024-01-27T00:44:28;147.02;;;87.95;;
34988;SDS011;21192;40.182;44.516;2024-01-27T00:46:54;143.65;;;89.00;;
34988;SDS011;21192;40.182;44.516;2024-01-27T00:49:20;145.85;;;86.95;;
34988;SDS011;21192;40.182;44.516;2024-01-27T00:51:46;149.25;;;87.63;;
34988;SDS011;21192;40.182;44.516;2024-01-27T00:54:12;143.90;;;86.15;;
34988;SDS011;21192;40.182;44.516;2024-01-27T00:56:38;146.70;;;84.95;;
34988;SDS011;21192;40.182;44.516;2024-01-27T00:59:04;139.18;;;85.43;;
34988;SDS011;21192;40.182;44.516;2024-01-27T01:01:29;139.35;;;85.30;;
34988;SDS011;21192;40.182;44.516;2024-01-27T01:03:55;147.57;;;87.15;;
34988;SDS011;21192;40.182;44.516;2024-01-27T01:06:22;144.70;;;84.60;;
34988;SDS011;21192;40.182;44.516;2024-01-27T01:08:48;141.50;;;82.93;;
34988;SDS011;21192;40.182;44.516;2024-01-27T01:11:14;140.25;;;82.55;;
34988;SDS011;21192;40.182;44.516;2024-01-27T01:13:41;136.07;;;81.97;;
34988;SDS011;21192;40.182;44.516;2024-01-27T01:16:07;137.82;;;81.07;;
34988;SDS011;21192;40.182;44.516;2024-01-27T01:18:33;141.13;;;82.57;;
34988;SDS011;21192;40.182;44.516;2024-01-27T01:20:59;129.68;;;79.03;;
34988;SDS011;21192;40.182;44.516;2024-01-27T01:23:25;130.13;;;78.00;;
34988;SDS011;21192;40.182;44.516;2024-01-27T01:25:51;129.85;;;79.40;;
34988;SDS011;21192;40.182;44.516;2024-01-27T01:28:17;134.25;;;81.10;;
34988;SDS011;21192;40.182;44.516;2024-01-27T01:30:42;140.70;;;84.18;;
34988;SDS011;21192;40.182;44.516;2024-01-27T01:33:10;138.60;;;83.65;;
34988;SDS011;21192;40.182;44.516;2024-01-27T01:35:36;139.65;;;83.47;;
34988;SDS011;21192;40.182;44.516;2024-01-27T01:38:03;141.48;;;82.85;;
34988;SDS011;21192;40.182;44.516;2024-01-27T01:40:29;139.65;;;84.93;;
34988;SDS011;21192;40.182;44.516;2024-01-27T01:42:54;132.63;;;81.70;;
34988;SDS011;21192;40.182;44.516;2024-01-27T01:45:20;129.82;;;79.53;;
34988;SDS011;21192;40.182;44.516;2024-01-27T01:47:46;135.05;;;81.43;;
34988;SDS011;21192;40.182;44.516;2024-01-27T01:50:13;132.70;;;80.75;;
34988;SDS011;21192;40.182;44.516;2024-01-27T01:52:39;135.10;;;80.93;;
34988;SDS011;21192;40.182;44.516;2024-01-27T01:55:05;128.60;;;75.78;;
34988;SDS011;21192;40.182;44.516;2024-01-27T01:57:32;132.73;;;76.47;;
34988;SDS011;21192;40.182;44.516;2024-01-27T01:59:58;124.97;;;76.03;;
34988;SDS011;21192;40.182;44.516;2024-01-27T02:02:24;129.00;;;76.38;;
34988;SDS011;21192;40.182;44.516;2024-01-27T02:04:50;128.00;;;75.60;;
34988;SDS011;21192;40.182;44.516;2024-01-27T02:07:16;131.75;;;79.65;;
34988;SDS011;21192;40.182;44.516;2024-01-27T02:09:42;133.82;;;78.53;;
34988;SDS011;21192;40.182;44.516;2024-01-27T02:12:09;139.73;;;83.10;;
34988;SDS011;21192;40.182;44.516;2024-01-27T02:14:35;149.43;;;88.00;;
34988;SDS011;21192;40.182;44.516;2024-01-27T02:17:01;149.63;;;87.10;;
34988;SDS011;21192;40.182;44.516;2024-01-27T02:19:27;137.65;;;81.78;;
34988;SDS011;21192;40.182;44.516;2024-01-27T02:21:53;150.27;;;86.22;;
34988;SDS011;21192;40.182;44.516;2024-01-27T02:24:18;147.00;;;88.57;;
34988;SDS011;21192;40.182;44.516;2024-01-27T02:26:44;155.55;;;90.15;;
34988;SDS011;21192;40.182;44.516;2024-01-27T02:29:10;147.38;;;88.03;;
34988;SDS011;21192;40.182;44.516;2024-01-27T02:31:36;147.65;;;86.22;;
34988;SDS011;21192;40.182;44.516;2024-01-27T02:34:02;146.25;;;88.45;;
34988;SDS011;21192;40.182;44.516;2024-01-27T02:36:28;144.77;;;86.82;;
34988;SDS011;21192;40.182;44.516;2024-01-27T02:38:54;141.88;;;86.63;;
34988;SDS011;21192;40.182;44.516;2024-01-27T02:41:19;149.10;;;87.32;;
34988;SDS011;21192;40.182;44.516;2024-01-27T02:43:45;147.32;;;86.07;;
34988;SDS011;21192;40.182;44.516;2024-01-27T02:46:11;143.38;;;85.60;;
34988;SDS011;21192;40.182;44.516;2024-01-27T02:48:41;140.43;;;84.82;;
34988;SDS011;21192;40.182;44.516;2024-01-27T02:51:08;145.07;;;86.15;;
34988;SDS011;21192;40.182;44.516;2024-01-27T02:53:34;147.57;;;85.35;;
34988;SDS011;21192;40.182;44.516;2024-01-27T02:56:00;150.73;;;87.85;;
34988;SDS011;21192;40.182;44.516;2024-01-27T02:58:26;140.93;;;84.68;;
34988;SDS011;21192;40.182;44.516;2024-01-27T03:00:52;147.25;;;87.03;;
34988;SDS011;21192;40.182;44.516;2024-01-27T03:03:18;144.32;;;88.00;;
34988;SDS011;21192;40.182;44.516;2024-01-27T03:05:44;147.50;;;86.10;;
34988;SDS011;21192;40.182;44.516;2024-01-27T03:08:10;152.00;;;88.50;;
34988;SDS011;21192;40.182;44.516;2024-01-27T03:10:35;147.57;;;87.13;;
34988;SDS011;21192;40.182;44.516;2024-01-27T03:13:02;151.02;;;88.68;;
34988;SDS011;21192;40.182;44.516;2024-01-27T03:15:28;150.85;;;89.55;;
34988;SDS011;21192;40.182;44.516;2024-01-27T03:17:53;147.18;;;86.97;;
34988;SDS011;21192;40.182;44.516;2024-01-27T03:20:19;142.10;;;86.20;;
34988;SDS011;21192;40.182;44.516;2024-01-27T03:22:45;147.18;;;84.70;;
34988;SDS011;21192;40.182;44.516;2024-01-27T03:25:11;140.40;;;83.82;;
34988;SDS011;21192;40.182;44.516;2024-01-27T03:27:37;145.82;;;84.05;;
34988;SDS011;21192;40.182;44.516;2024-01-27T03:30:03;140.70;;;83.70;;
34988;SDS011;21192;40.182;44.516;2024-01-27T03:32:30;138.38;;;82.10;;
34988;SDS011;21192;40.182;44.516;2024-01-27T03:34:59;142.25;;;82.95;;
34988;SDS011;21192;40.182;44.516;2024-01-27T03:37:26;136.45;;;79.85;;
34988;SDS011;21192;40.182;44.516;2024-01-27T03:39:52;138.85;;;79.72;;
34988;SDS011;21192;40.182;44.516;2024-01-27T03:42:18;137.68;;;79.80;;
34988;SDS011;21192;40.182;44.516;2024-01-27T03:44:44;130.00;;;77.88;;
34988;SDS011;21192;40.182;44.516;2024-01-27T03:47:10;127.47;;;75.78;;
34988;SDS011;21192;40.182;44.516;2024-01-27T03:49:36;126.82;;;74.05;;
34988;SDS011;21192;40.182;44.516;2024-01-27T03:52:02;128.45;;;76.82;;
34988;SDS011;21192;40.182;44.516;2024-01-27T03:54:28;125.40;;;74.43;;
34988;SDS011;21192;40.182;44.516;2024-01-27T03:56:54;124.07;;;72.75;;
34988;SDS011;21192;40.182;44.516;2024-01-27T03:59:20;125.75;;;72.85;;
34988;SDS011;21192;40.182;44.516;2024-01-27T04:01:46;129.38;;;72.70;;
34988;SDS011;21192;40.182;44.516;2024-01-27T04:04:12;123.53;;;73.78;;
34988;SDS011;21192;40.182;44.516;2024-01-27T04:06:39;128.50;;;73.45;;
34988;SDS011;21192;40.182;44.516;2024-01-27T04:09:06;128.43;;;73.30;;
34988;SDS011;21192;40.182;44.516;2024-01-27T04:11:35;125.70;;;75.28;;
34988;SDS011;21192;40.182;44.516;2024-01-27T04:14:02;122.18;;;72.55;;
34988;SDS011;21192;40.182;44.516;2024-01-27T04:16:29;132.95;;;75.07;;
34988;SDS011;21192;40.182;44.516;2024-01-27T04:18:55;126.45;;;75.18;;
34988;SDS011;21192;40.182;44.516;2024-01-27T04:21:21;133.48;;;75.03;;
34988;SDS011;21192;40.182;44.516;2024-01-27T04:23:47;125.68;;;73.07;;
34988;SDS011;21192;40.182;44.516;2024-01-27T04:26:13;123.72;;;72.72;;
34988;SDS011;21192;40.182;44.516;2024-01-27T04:28:39;121.80;;;71.13;;
34988;SDS011;21192;40.182;44.516;2024-01-27T04:31:05;121.35;;;71.03;;
34988;SDS011;21192;40.182;44.516;2024-01-27T04:33:31;120.43;;;72.53;;
34988;SDS011;21192;40.182;44.516;2024-01-27T04:35:58;126.72;;;73.70;;
34988;SDS011;21192;40.182;44.516;2024-01-27T04:38:24;130.80;;;75.43;;
34988;SDS011;21192;40.182;44.516;2024-01-27T04:40:50;128.48;;;73.85;;
34988;SDS011;21192;40.182;44.516;2024-01-27T04:43:18;125.88;;;73.82;;
34988;SDS011;21192;40.182;44.516;2024-01-27T04:45:45;128.43;;;74.53;;
34988;SDS011;21192;40.182;44.516;2024-01-27T04:48:12;127.30;;;75.97;;
34988;SDS011;21192;40.182;44.516;2024-01-27T04:50:38;138.77;;;75.22;;
34988;SDS011;21192;40.182;44.516;2024-01-27T04:53:04;123.35;;;71.45;;
34988;SDS011;21192;40.182;44.516;2024-01-27T04:55:30;126.47;;;73.13;;
34988;SDS011;21192;40.182;44.516;2024-01-27T04:57:56;128.27;;;72.68;;
34988;SDS011;21192;40.182;44.516;2024-01-27T05:00:23;128.13;;;72.68;;
34988;SDS011;21192;40.182;44.516;2024-01-27T05:02:52;120.53;;;69.25;;
34988;SDS011;21192;40.182;44.516;2024-01-27T05:05:18;118.82;;;71.43;;
34988;SDS011;21192;40.182;44.516;2024-01-27T05:07:43;132.20;;;71.15;;
34988;SDS011;21192;40.182;44.516;2024-01-27T05:10:12;122.82;;;73.35;;
34988;SDS011;21192;40.182;44.516;2024-01-27T05:12:40;118.97;;;69.63;;
34988;SDS011;21192;40.182;44.516;2024-01-27T05:15:06;127.28;;;73.03;;
34988;SDS011;21192;40.182;44.516;2024-01-27T05:17:33;118.80;;;69.65;;
34988;SDS011;21192;40.182;44.516;2024-01-27T05:19:59;121.38;;;71.47;;
34988;SDS011;21192;40.182;44.516;2024-01-27T05:22:25;121.13;;;71.50;;
34988;SDS011;21192;40.182;44.516;2024-01-27T05:24:51;120.60;;;71.88;;
34988;SDS011;21192;40.182;44.516;2024-01-27T05:27:16;130.98;;;73.47;;
34988;SDS011;21192;40.182;44.516;2024-01-27T05:29:42;120.15;;;71.43;;
34988;SDS011;21192;40.182;44.516;2024-01-27T05:32:08;127.95;;;72.63;;
34988;SDS011;21192;40.182;44.516;2024-01-27T05:34:34;120.22;;;70.75;;
34988;SDS011;21192;40.182;44.516;2024-01-27T05:37:00;125.15;;;71.60;;
34988;SDS011;21192;40.182;44.516;2024-01-27T05:39:26;123.00;;;71.65;;
34988;SDS011;21192;40.182;44.516;2024-01-27T05:41:54;120.30;;;69.65;;
34988;SDS011;21192;40.182;44.516;2024-01-27T05:44:20;122.65;;;72.60;;
34988;SDS011;21192;40.182;44.516;2024-01-27T05:46:46;125.80;;;73.10;;
34988;SDS011;21192;40.182;44.516;2024-01-27T05:49:12;120.10;;;70.47;;
34988;SDS011;21192;40.182;44.516;2024-01-27T05:51:38;122.00;;;71.50;;
34988;SDS011;21192;40.182;44.516;2024-01-27T05:54:03;126.28;;;69.68;;
34988;SDS011;21192;40.182;44.516;2024-01-27T05:56:29;120.82;;;69.50;;
34988;SDS011;21192;40.182;44.516;2024-01-27T05:58:55;124.45;;;73.72;;
34988;SDS011;21192;40.182;44.516;2024-01-27T06:01:21;137.23;;;78.43;;
34988;SDS011;21192;40.182;44.516;2024-01-27T06:03:47;129.55;;;75.10;;
34988;SDS011;21192;40.182;44.516;2024-01-27T06:06:13;135.43;;;77.75;;
34988;SDS011;21192;40.182;44.516;2024-01-27T06:08:39;133.27;;;79.97;;
34988;SDS011;21192;40.182;44.516;2024-01-27T06:11:06;128.40;;;76.53;;
34988;SDS011;21192;40.182;44.516;2024-01-27T06:13:32;137.02;;;82.72;;
34988;SDS011;21192;40.182;44.516;2024-01-27T06:15:59;144.13;;;83.50;;
34988;SDS011;21192;40.182;44.516;2024-01-27T06:18:25;145.52;;;83.53;;
34988;SDS011;21192;40.182;44.516;2024-01-27T06:20:51;146.23;;;85.70;;
34988;SDS011;21192;40.182;44.516;2024-01-27T06:23:17;138.68;;;83.32;;
34988;SDS011;21192;40.182;44.516;2024-01-27T06:25:43;142.55;;;84.47;;
34988;SDS011;21192;40.182;44.516;2024-01-27T06:28:09;149.10;;;84.97;;
34988;SDS011;21192;40.182;44.516;2024-01-27T06:30:35;152.88;;;86.53;;
34988;SDS011;21192;40.182;44.516;2024-01-27T06:33:01;149.18;;;85.10;;
34988;SDS011;21192;40.182;44.516;2024-01-27T06:35:27;153.70;;;88.82;;
34988;SDS011;21192;40.182;44.516;2024-01-27T06:37:53;150.95;;;87.15;;
34988;SDS011;21192;40.182;44.516;2024-01-27T06:40:19;153.98;;;87.53;;
34988;SDS011;21192;40.182;44.516;2024-01-27T06:42:45;147.32;;;86.40;;
34988;SDS011;21192;40.182;44.516;2024-01-27T06:45:11;156.05;;;88.30;;
34988;SDS011;21192;40.182;44.516;2024-01-27T06:47:37;152.77;;;87.15;;
34988;SDS011;21192;40.182;44.516;2024-01-27T06:50:03;155.38;;;89.30;;
34988;SDS011;21192;40.182;44.516;2024-01-27T06:52:29;151.50;;;88.32;;
34988;SDS011;21192;40.182;44.516;2024-01-27T06:54:55;157.48;;;86.80;;
34988;SDS011;21192;40.182;44.516;2024-01-27T06:57:21;153.35;;;87.35;;
34988;SDS011;21192;40.182;44.516;2024-01-27T06:59:48;147.98;;;86.68;;
34988;SDS011;21192;40.182;44.516;2024-01-27T07:02:18;152.23;;;88.28;;
34988;SDS011;21192;40.182;44.516;2024-01-27T07:04:47;150.00;;;87.07;;
34988;SDS011;21192;40.182;44.516;2024-01-27T07:07:13;137.38;;;83.60;;
34988;SDS011;21192;40.182;44.516;2024-01-27T07:09:39;145.85;;;85.07;;
34988;SDS011;21192;40.182;44.516;2024-01-27T07:12:05;143.70;;;86.53;;
34988;SDS011;21192;40.182;44.516;2024-01-27T07:14:31;147.00;;;87.32;;
34988;SDS011;21192;40.182;44.516;2024-01-27T07:16:57;142.55;;;86.32;;
34988;SDS011;21192;40.182;44.516;2024-01-27T07:19:23;145.27;;;87.10;;
34988;SDS011;21192;40.182;44.516;2024-01-27T07:21:48;145.18;;;87.50;;
34988;SDS011;21192;40.182;44.516;2024-01-27T07:24:15;138.35;;;84.22;;
34988;SDS011;21192;40.182;44.516;2024-01-27T07:26:41;143.95;;;86.40;;
34988;SDS011;21192;40.182;44.516;2024-01-27T07:29:07;135.98;;;84.82;;
34988;SDS011;21192;40.182;44.516;2024-01-27T07:31:33;142.73;;;88.85;;
34988;SDS011;21192;40.182;44.516;2024-01-27T07:33:59;134.15;;;85.22;;
34988;SDS011;21192;40.182;44.516;2024-01-27T07:36:25;135.57;;;85.32;;
34988;SDS011;21192;40.182;44.516;2024-01-27T07:38:51;138.25;;;87.82;;
34988;SDS011;21192;40.182;44.516;2024-01-27T07:41:17;139.68;;;86.25;;
34988;SDS011;21192;40.182;44.516;2024-01-27T07:43:43;156.68;;;95.50;;
34988;SDS011;21192;40.182;44.516;2024-01-27T07:46:08;143.80;;;89.45;;
34988;SDS011;21192;40.182;44.516;2024-01-27T07:48:34;139.90;;;84.80;;
34988;SDS011;21192;40.182;44.516;2024-01-27T07:51:00;142.02;;;86.13;;
34988;SDS011;21192;40.182;44.516;2024-01-27T07:53:26;144.27;;;89.75;;
34988;SDS011;21192;40.182;44.516;2024-01-27T07:55:52;165.23;;;98.85;;
34988;SDS011;21192;40.182;44.516;2024-01-27T07:58:19;169.75;;;101.15;;
34988;SDS011;21192;40.182;44.516;2024-01-27T08:00:45;172.05;;;102.47;;
34988;SDS011;21192;40.182;44.516;2024-01-27T08:03:10;179.88;;;102.30;;
34988;SDS011;21192;40.182;44.516;2024-01-27T08:05:36;174.55;;;105.68;;
34988;SDS011;21192;40.182;44.516;2024-01-27T08:08:02;168.48;;;105.18;;
34988;SDS011;21192;40.182;44.516;2024-01-27T08:10:28;168.93;;;103.00;;
34988;SDS011;21192;40.182;44.516;2024-01-27T08:12:54;162.30;;;100.35;;
34988;SDS011;21192;40.182;44.516;2024-01-27T08:15:20;165.20;;;103.10;;
34988;SDS011;21192;40.182;44.516;2024-01-27T08:17:46;162.98;;;101.30;;
34988;SDS011;21192;40.182;44.516;2024-01-27T08:20:12;170.13;;;103.95;;
34988;SDS011;21192;40.182;44.516;2024-01-27T08:22:38;156.63;;;98.18;;
34988;SDS011;21192;40.182;44.516;2024-01-27T08:25:04;161.30;;;102.45;;
34988;SDS011;21192;40.182;44.516;2024-01-27T08:27:30;176.45;;;110.68;;
34988;SDS011;21192;40.182;44.516;2024-01-27T08:29:56;158.15;;;94.35;;
34988;SDS011;21192;40.182;44.516;2024-01-27T08:32:22;136.32;;;83.43;;
34988;SDS011;21192;40.182;44.516;2024-01-27T08:34:48;185.32;;;110.93;;
34988;SDS011;21192;40.182;44.516;2024-01-27T08:37:20;195.55;;;120.78;;
34988;SDS011;21192;40.182;44.516;2024-01-27T08:39:47;188.73;;;112.93;;
34988;SDS011;21192;40.182;44.516;2024-01-27T08:42:13;177.85;;;110.93;;
34988;SDS011;21192;40.182;44.516;2024-01-27T08:44:38;189.93;;;112.25;;
34988;SDS011;21192;40.182;44.516;2024-01-27T08:47:05;189.25;;;112.30;;
34988;SDS011;21192;40.182;44.516;2024-01-27T08:49:31;187.30;;;115.43;;
34988;SDS011;21192;40.182;44.516;2024-01-27T08:51:57;190.93;;;111.90;;
34988;SDS011;21192;40.182;44.516;2024-01-27T08:54:23;185.93;;;110.78;;
34988;SDS011;21192;40.182;44.516;2024-01-27T08:56:49;187.13;;;112.25;;
34988;SDS011;21192;40.182;44.516;2024-01-27T08:59:15;175.10;;;106.47;;
34988;SDS011;21192;40.182;44.516;2024-01-27T09:01:41;180.82;;;103.68;;
34988;SDS011;21192;40.182;44.516;2024-01-27T09:04:07;183.82;;;104.00;;
34988;SDS011;21192;40.182;44.516;2024-01-27T09:06:34;166.68;;;96.30;;
34988;SDS011;21192;40.182;44.516;2024-01-27T09:09:00;161.82;;;95.57;;
34988;SDS011;21192;40.182;44.516;2024-01-27T09:11:26;155.02;;;93.15;;
34988;SDS011;21192;40.182;44.516;2024-01-27T09:13:55;159.20;;;93.15;;
34988;SDS011;21192;40.182;44.516;2024-01-27T09:16:21;167.75;;;99.15;;
34988;SDS011;21192;40.182;44.516;2024-01-27T09:18:48;171.63;;;101.47;;
34988;SDS011;21192;40.182;44.516;2024-01-27T09:21:17;186.32;;;108.63;;
34988;SDS011;21192;40.182;44.516;2024-01-27T09:23:47;166.50;;;97.70;;
34988;SDS011;21192;40.182;44.516;2024-01-27T09:26:13;166.02;;;100.80;;
34988;SDS011;21192;40.182;44.516;2024-01-27T09:28:40;159.93;;;96.95;;
34988;SDS011;21192;40.182;44.516;2024-01-27T09:31:10;163.80;;;98.30;;
34988;SDS011;21192;40.182;44.516;2024-01-27T09:33:36;178.48;;;99.72;;
34988;SDS011;21192;40.182;44.516;2024-01-27T09:36:02;167.48;;;97.88;;
34988;SDS011;21192;40.182;44.516;2024-01-27T09:38:29;161.50;;;98.45;;
34988;SDS011;21192;40.182;44.516;2024-01-27T09:40:55;163.75;;;96.15;;
34988;SDS011;21192;40.182;44.516;2024-01-27T09:43:21;151.93;;;90.75;;
34988;SDS011;21192;40.182;44.516;2024-01-27T09:45:50;160.25;;;93.35;;
34988;SDS011;21192;40.182;44.516;2024-01-27T09:48:16;183.00;;;107.03;;
34988;SDS011;21192;40.182;44.516;2024-01-27T09:50:44;171.98;;;105.35;;
34988;SDS011;21192;40.182;44.516;2024-01-27T09:53:12;214.80;;;127.88;;
34988;SDS011;21192;40.182;44.516;2024-01-27T09:55:38;170.60;;;102.30;;
34988;SDS011;21192;40.182;44.516;2024-01-27T09:58:04;157.02;;;92.35;;
34988;SDS011;21192;40.182;44.516;2024-01-27T10:00:31;152.70;;;90.90;;
34988;SDS011;21192;40.182;44.516;2024-01-27T10:02:59;143.68;;;85.68;;
34988;SDS011;21192;40.182;44.516;2024-01-27T10:05:25;142.18;;;86.13;;
34988;SDS011;21192;40.182;44.516;2024-01-27T10:07:52;157.13;;;91.07;;
34988;SDS011;21192;40.182;44.516;2024-01-27T10:10:18;161.38;;;93.50;;
34988;SDS011;21192;40.182;44.516;2024-01-27T10:12:44;149.40;;;88.35;;
34988;SDS011;21192;40.182;44.516;2024-01-27T10:15:19;135.18;;;84.05;;
34988;SDS011;21192;40.182;44.516;2024-01-27T10:17:45;135.48;;;82.82;;
34988;SDS011;21192;40.182;44.516;2024-01-27T10:20:11;150.48;;;85.60;;
34988;SDS011;21192;40.182;44.516;2024-01-27T10:22:46;148.05;;;91.47;;
34988;SDS011;21192;40.182;44.516;2024-01-27T10:25:12;163.55;;;95.53;;
34988;SDS011;21192;40.182;44.516;2024-01-27T10:27:38;166.20;;;98.32;;
34988;SDS011;21192;40.182;44.516;2024-01-27T10:30:05;153.32;;;91.40;;
34988;SDS011;21192;40.182;44.516;2024-01-27T10:32:34;161.60;;;99.13;;
34988;SDS011;21192;40.182;44.516;2024-01-27T10:35:01;144.10;;;91.15;;
34988;SDS011;21192;40.182;44.516;2024-01-27T10:37:30;150.80;;;90.32;;
34988;SDS011;21192;40.182;44.516;2024-01-27T10:40:03;144.95;;;90.57;;
34988;SDS011;21192;40.182;44.516;2024-01-27T10:42:30;142.52;;;89.82;;
34988;SDS011;21192;40.182;44.516;2024-01-27T10:44:59;140.07;;;83.82;;
34988;SDS011;21192;40.182;44.516;2024-01-27T10:47:28;143.10;;;87.75;;
34988;SDS011;21192;40.182;44.516;2024-01-27T10:49:56;150.05;;;89.30;;
34988;SDS011;21192;40.182;44.516;2024-01-27T10:52:24;144.27;;;89.90;;
34988;SDS011;21192;40.182;44.516;2024-01-27T10:54:59;141.07;;;86.53;;
34988;SDS011;21192;40.182;44.516;2024-01-27T10:57:32;138.13;;;85.95;;
34988;SDS011;21192;40.182;44.516;2024-01-27T11:00:03;130.25;;;83.35;;
34988;SDS011;21192;40.182;44.516;2024-01-27T11:02:34;140.88;;;91.40;;
34988;SDS011;21192;40.182;44.516;2024-01-27T11:05:02;137.45;;;87.28;;
34988;SDS011;21192;40.182;44.516;2024-01-27T11:07:32;139.43;;;85.68;;
34988;SDS011;21192;40.182;44.516;2024-01-27T11:09:59;143.65;;;88.30;;
34988;SDS011;21192;40.182;44.516;2024-01-27T11:12:25;157.57;;;97.13;;
34988;SDS011;21192;40.182;44.516;2024-01-27T11:14:52;134.30;;;86.72;;
34988;SDS011;21192;40.182;44.516;2024-01-27T11:17:18;127.97;;;81.28;;
34988;SDS011;21192;40.182;44.516;2024-01-27T11:19:45;128.35;;;82.20;;
34988;SDS011;21192;40.182;44.516;2024-01-27T11:22:24;132.40;;;82.30;;
34988;SDS011;21192;40.182;44.516;2024-01-27T11:24:52;130.30;;;80.47;;
34988;SDS011;21192;40.182;44.516;2024-01-27T11:27:34;128.50;;;81.90;;
34988;SDS011;21192;40.182;44.516;2024-01-27T11:30:00;125.93;;;78.63;;
34988;SDS011;21192;40.182;44.516;2024-01-27T11:32:26;125.88;;;81.22;;
34988;SDS011;21192;40.182;44.516;2024-01-27T11:34:52;126.05;;;80.63;;
34988;SDS011;21192;40.182;44.516;2024-01-27T11:37:18;131.52;;;82.78;;
34988;SDS011;21192;40.182;44.516;2024-01-27T11:39:50;128.55;;;83.00;;
34988;SDS011;21192;40.182;44.516;2024-01-27T11:42:17;128.18;;;81.20;;
34988;SDS011;21192;40.182;44.516;2024-01-27T11:44:45;133.55;;;83.57;;
34988;SDS011;21192;40.182;44.516;2024-01-27T11:47:15;129.52;;;82.35;;
34988;SDS011;21192;40.182;44.516;2024-01-27T11:49:42;123.45;;;78.07;;
34988;SDS011;21192;40.182;44.516;2024-01-27T11:52:15;128.23;;;83.90;;
34988;SDS011;21192;40.182;44.516;2024-01-27T11:54:41;116.38;;;76.28;;
34988;SDS011;21192;40.182;44.516;2024-01-27T11:57:06;128.48;;;80.03;;
34988;SDS011;21192;40.182;44.516;2024-01-27T11:59:33;122.93;;;74.93;;
34988;SDS011;21192;40.182;44.516;2024-01-27T12:02:00;116.40;;;76.32;;
34988;SDS011;21192;40.182;44.516;2024-01-27T12:04:27;121.10;;;78.75;;
34988;SDS011;21192;40.182;44.516;2024-01-27T12:06:53;112.78;;;74.07;;
34988;SDS011;21192;40.182;44.516;2024-01-27T12:09:19;115.72;;;74.05;;
34988;SDS011;21192;40.182;44.516;2024-01-27T12:11:48;142.57;;;77.63;;
34988;SDS011;21192;40.182;44.516;2024-01-27T12:14:14;125.18;;;80.28;;
34988;SDS011;21192;40.182;44.516;2024-01-27T12:16:40;136.15;;;85.70;;
34988;SDS011;21192;40.182;44.516;2024-01-27T12:19:08;140.57;;;89.80;;
34988;SDS011;21192;40.182;44.516;2024-01-27T12:21:35;158.13;;;94.32;;
34988;SDS011;21192;40.182;44.516;2024-01-27T12:24:01;158.90;;;95.43;;
34988;SDS011;21192;40.182;44.516;2024-01-27T12:26:28;150.25;;;91.75;;
34988;SDS011;21192;40.182;44.516;2024-01-27T12:28:56;153.40;;;95.78;;
34988;SDS011;21192;40.182;44.516;2024-01-27T12:31:25;150.00;;;93.95;;
34988;SDS011;21192;40.182;44.516;2024-01-27T12:33:53;150.55;;;91.53;;
34988;SDS011;21192;40.182;44.516;2024-01-27T12:36:20;143.55;;;89.30;;
34988;SDS011;21192;40.182;44.516;2024-01-27T12:38:52;143.93;;;89.38;;
34988;SDS011;21192;40.182;44.516;2024-01-27T12:41:18;151.27;;;95.50;;
34988;SDS011;21192;40.182;44.516;2024-01-27T12:43:44;157.73;;;96.72;;
34988;SDS011;21192;40.182;44.516;2024-01-27T12:46:10;150.85;;;93.35;;
34988;SDS011;21192;40.182;44.516;2024-01-27T12:48:37;154.57;;;95.00;;
34988;SDS011;21192;40.182;44.516;2024-01-27T12:51:04;145.10;;;87.68;;
34988;SDS011;21192;40.182;44.516;2024-01-27T12:53:30;145.57;;;91.10;;
34988;SDS011;21192;40.182;44.516;2024-01-27T12:55:56;142.75;;;86.53;;
34988;SDS011;21192;40.182;44.516;2024-01-27T12:58:22;146.88;;;88.88;;
34988;SDS011;21192;40.182;44.516;2024-01-27T13:00:48;150.73;;;95.88;;
34988;SDS011;21192;40.182;44.516;2024-01-27T13:03:14;156.68;;;93.85;;
34988;SDS011;21192;40.182;44.516;2024-01-27T13:05:40;168.07;;;102.10;;
34988;SDS011;21192;40.182;44.516;2024-01-27T13:08:06;159.32;;;96.25;;
34988;SDS011;21192;40.182;44.516;2024-01-27T13:10:33;164.27;;;99.28;;
34988;SDS011;21192;40.182;44.516;2024-01-27T13:12:59;174.88;;;103.43;;
34988;SDS011;21192;40.182;44.516;2024-01-27T13:15:25;175.68;;;107.10;;
34988;SDS011;21192;40.182;44.516;2024-01-27T13:17:51;160.98;;;97.50;;
34988;SDS011;21192;40.182;44.516;2024-01-27T13:20:17;182.48;;;101.30;;
34988;SDS011;21192;40.182;44.516;2024-01-27T13:22:43;167.00;;;97.40;;
34988;SDS011;21192;40.182;44.516;2024-01-27T13:25:10;160.93;;;97.65;;
34988;SDS011;21192;40.182;44.516;2024-01-27T13:27:36;159.95;;;94.65;;
34988;SDS011;21192;40.182;44.516;2024-01-27T13:30:02;151.13;;;95.20;;
34988;SDS011;21192;40.182;44.516;2024-01-27T13:32:28;126.35;;;76.25;;
34988;SDS011;21192;40.182;44.516;2024-01-27T13:34:54;112.25;;;68.22;;
34988;SDS011;21192;40.182;44.516;2024-01-27T13:37:20;113.20;;;69.10;;
34988;SDS011;21192;40.182;44.516;2024-01-27T13:39:47;103.00;;;62.25;;
34988;SDS011;21192;40.182;44.516;2024-01-27T13:42:13;127.28;;;68.63;;
34988;SDS011;21192;40.182;44.516;2024-01-27T13:44:39;103.30;;;63.65;;
34988;SDS011;21192;40.182;44.516;2024-01-27T13:47:05;106.15;;;65.82;;
34988;SDS011;21192;40.182;44.516;2024-01-27T13:49:34;107.90;;;62.25;;
34988;SDS011;21192;40.182;44.516;2024-01-27T13:52:01;92.85;;;58.50;;